Oconto, WI

7:58 PM CST on January 26, 2015 (GMT -0600)
Oconto Municipal | Change Station
CLOSE
Current Station
Airport
Location: Oconto,
Elevation: 604 ft
Nearby Weather Stations
Active Advisory: Special Statement

Elev 604 ft 44.87 °N, 87.91 °W | Updated 23 minutes ago

Overcast
Overcast
25 °F
Feels Like 25 °F
N
0
Wind Variable Wind from North

Today
High -- | Low -- °F
--% Chance of Precip.
Yesterday
High -- | Low -- °F
Precip. -- in
7:17 AM 4:51 PM
Waxing Crescent, 49% visible
Pressure 29.91 in
Visibility 10.0 miles
Clouds Overcast 3900 ft
Dew Point 22 °F
Humidity 89%
Rainfall 0.00 in
Snow Depth Not available.
UV 0 out of 12
Pollen .10 out of 12
Air Quality Not available.
Flu Activity Not available.
METAR KOCQ 270135Z AUTO 00000KT 10SM OVC039 M04/M05 A2991 RMK AO1 T10381053

More Conditions Fewer Conditions

Pressure 29.91 in
Visibility 10.0 miles
Clouds Overcast 3900 ft
Dew Point 22 °F
Humidity 89%
Rainfall 0.00 in
Snow Depth Not available.
UV 0 out of 12
Pollen .10 out of 12
Air Quality Not available.
Flu Activity Not available.
METAR KOCQ 270135Z AUTO 00000KT 10SM OVC039 M04/M05 A2991 RMK AO1 T10381053

More Conditions Fewer Conditions

10-Day Weather Forecast

Almanac

Astronomy

Jan. 26, 2015 Rise Set
Actual Time
Civil Twilight
Nautical Twilight
Astronomical Twilight
Moon
Length of Visible Light
Length of Day
Tomorrow will be .
, % of the Moon is Illuminated

Today's Extremes

State Highs State Lows

Community

WunderPhotos

Upload Photos

1,790,451 photos uploaded!

WunderBlogs® & News

Nearby

Air Quality

  Air Quality AQ Index Pollutant
Not available.

Snow Depth

Station Depth Elevation

Earthquake Activity

City Distance Mag. Time & Date
Minimum magnitude displayed is 2.5.

Coastal Water Temperatures

Place Temperature

Nearby Weather Stations